createdAt,value
2017-08-17T00:01:11.396Z,96128
2017-08-17T00:03:47.665Z,96120
2017-08-17T00:06:17.558Z,96125
2017-08-17T00:08:46.908Z,96123
2017-08-17T00:11:16.625Z,96117
2017-08-17T00:13:45.582Z,96111
2017-08-17T00:16:14.542Z,96108
2017-08-17T00:18:43.664Z,96113
2017-08-17T00:21:12.628Z,96109
2017-08-17T00:23:41.590Z,96117
2017-08-17T00:26:10.541Z,96123
2017-08-17T00:28:40.497Z,96120
2017-08-17T00:31:09.465Z,96119
2017-08-17T00:33:38.425Z,96126
2017-08-17T00:36:07.379Z,96120
2017-08-17T00:38:36.387Z,96120
2017-08-17T00:41:05.380Z,96158
2017-08-17T00:43:34.537Z,96130
2017-08-17T00:46:04.254Z,96128
2017-08-17T00:48:33.363Z,96125
2017-08-17T00:51:14.736Z,96131
2017-08-17T00:53:43.980Z,96134
2017-08-17T00:56:13.007Z,96123
2017-08-17T00:58:42.081Z,96129
2017-08-17T01:01:12.235Z,96133
2017-08-17T01:03:41.991Z,96135
2017-08-17T01:06:10.950Z,96124
2017-08-17T01:08:40.800Z,96125
2017-08-17T01:11:09.772Z,96123
2017-08-17T01:13:38.727Z,96129
2017-08-17T01:16:07.706Z,96127
2017-08-17T01:18:38.332Z,96132
2017-08-17T01:21:07.295Z,96140
2017-08-17T01:23:36.255Z,96136
2017-08-17T01:26:05.236Z,96137
2017-08-17T01:28:34.188Z,96137
2017-08-17T01:31:03.131Z,96133
2017-08-17T01:33:32.105Z,96131
2017-08-17T01:36:01.825Z,96129
2017-08-17T01:38:30.788Z,96132
2017-08-17T01:41:05.741Z,96132
2017-08-17T01:43:35.466Z,96125
2017-08-17T01:46:04.427Z,96124
2017-08-17T01:48:34.142Z,96123
2017-08-17T01:51:03.106Z,96121
2017-08-17T01:53:32.688Z,96119
2017-08-17T01:56:01.655Z,96117
2017-08-17T01:58:30.609Z,96119
2017-08-17T02:00:59.575Z,96117
2017-08-17T02:03:28.531Z,96106
2017-08-17T02:05:57.479Z,96103
2017-08-17T02:08:26.436Z,96101
2017-08-17T02:11:08.127Z,96101
2017-08-17T02:13:37.092Z,96104
2017-08-17T02:16:06.052Z,96089
2017-08-17T02:18:35.214Z,96081
2017-08-17T02:21:04.185Z,96078
2017-08-17T02:23:33.141Z,96080
2017-08-17T02:26:02.091Z,96082
2017-08-17T02:28:31.040Z,96082
2017-08-17T02:31:00.762Z,96078
2017-08-17T02:33:29.714Z,96078
2017-08-17T02:35:58.694Z,96082
2017-08-17T02:38:27.643Z,96080
2017-08-17T02:40:56.598Z,96079
2017-08-17T02:43:25.560Z,96080
2017-08-17T02:45:54.517Z,96071
2017-08-17T02:48:23.492Z,96074
2017-08-17T02:50:53.213Z,96073
2017-08-17T02:53:22.164Z,96078
2017-08-17T02:55:51.119Z,96085
2017-08-17T02:58:20.067Z,96085
2017-08-17T03:00:49.023Z,96080
2017-08-17T03:03:17.972Z,96084
2017-08-17T03:05:46.919Z,96088
2017-08-17T03:08:15.990Z,96082
2017-08-17T03:10:44.946Z,96072
2017-08-17T03:13:13.903Z,96074
2017-08-17T03:15:42.859Z,96082
2017-08-17T03:18:11.818Z,96081
2017-08-17T03:20:40.772Z,96085
2017-08-17T03:23:09.727Z,96085
2017-08-17T03:25:38.691Z,96079
2017-08-17T03:28:07.643Z,96078
2017-08-17T03:30:36.766Z,96081
2017-08-17T03:33:05.713Z,96083
2017-08-17T03:35:34.687Z,96087
2017-08-17T03:38:03.635Z,96079
2017-08-17T03:40:33.355Z,96080
2017-08-17T03:43:03.074Z,96078
2017-08-17T03:45:32.023Z,96081
2017-08-17T03:48:01.008Z,96080
2017-08-17T03:50:29.935Z,96084
2017-08-17T03:53:24.642Z,96087
2017-08-17T03:55:53.594Z,96084
2017-08-17T03:58:22.576Z,96087
2017-08-17T04:00:51.534Z,96085
2017-08-17T04:03:20.499Z,96076
2017-08-17T04:05:50.227Z,96083
2017-08-17T04:08:19.175Z,96078
2017-08-17T04:10:48.139Z,96078
2017-08-17T04:13:17.096Z,96082
2017-08-17T04:15:46.062Z,96086
2017-08-17T04:18:15.013Z,96074
2017-08-17T04:20:43.964Z,96086
2017-08-17T04:23:12.914Z,96084
2017-08-17T04:25:41.881Z,96085
2017-08-17T04:28:10.827Z,96088
2017-08-17T04:30:40.555Z,96090
2017-08-17T04:33:23.543Z,96096
2017-08-17T04:35:52.500Z,96085
2017-08-17T04:38:21.467Z,96090
2017-08-17T04:40:50.427Z,96096
2017-08-17T04:43:19.379Z,96092
2017-08-17T04:45:48.337Z,96087
2017-08-17T04:48:17.287Z,96078
2017-08-17T04:50:46.247Z,96085
2017-08-17T04:53:15.195Z,96083
2017-08-17T04:55:44.151Z,96084
2017-08-17T04:58:36.533Z,96087
2017-08-17T05:01:06.256Z,96091
2017-08-17T05:03:35.215Z,96095
2017-08-17T05:06:04.168Z,96089
2017-08-17T05:08:33.158Z,96090
2017-08-17T05:11:02.103Z,96088
2017-08-17T05:13:31.072Z,96083
2017-08-17T05:16:00.031Z,96085
2017-08-17T05:18:28.988Z,96083
2017-08-17T05:20:58.719Z,96084
2017-08-17T05:23:27.689Z,96083
2017-08-17T05:26:04.562Z,96079
2017-08-17T05:28:34.280Z,96088
2017-08-17T05:31:03.240Z,96098
2017-08-17T05:33:32.191Z,96093
2017-08-17T05:36:01.144Z,96096
2017-08-17T05:38:30.875Z,96100
2017-08-17T05:40:59.824Z,96116
2017-08-17T05:43:28.783Z,96111
2017-08-17T05:45:57.736Z,96105
2017-08-17T05:48:27.451Z,96109
2017-08-17T05:50:57.181Z,96102
2017-08-17T05:53:26.127Z,96129
2017-08-17T05:55:55.079Z,96104
2017-08-17T05:58:24.044Z,96106
2017-08-17T06:00:53.000Z,96106
2017-08-17T06:03:21.973Z,96108
2017-08-17T06:05:50.933Z,96110
2017-08-17T06:08:19.900Z,96109
2017-08-17T06:10:49.629Z,96114
2017-08-17T06:13:18.591Z,96111
2017-08-17T06:15:47.571Z,96121
2017-08-17T06:18:16.524Z,96116
2017-08-17T06:20:45.512Z,96118
2017-08-17T06:23:14.464Z,96119
2017-08-17T06:25:44.194Z,96120
2017-08-17T06:28:13.155Z,96109
2017-08-17T06:30:42.180Z,96109
2017-08-17T06:33:11.192Z,96107
2017-08-17T06:35:40.155Z,96106
2017-08-17T06:38:09.885Z,96101
2017-08-17T06:40:39.192Z,96096
2017-08-17T06:43:08.165Z,96093
2017-08-17T06:45:37.115Z,96093
2017-08-17T06:48:06.072Z,96103
2017-08-17T06:50:35.047Z,96097
2017-08-17T06:53:04.008Z,96092
2017-08-17T06:55:33.015Z,96101
2017-08-17T06:58:06.640Z,96099
2017-08-17T07:00:35.627Z,96100
2017-08-17T07:03:04.583Z,96104
2017-08-17T07:05:34.308Z,96098
2017-08-17T07:08:04.043Z,96106
2017-08-17T07:10:33.692Z,96114
2017-08-17T07:13:02.705Z,96112
2017-08-17T07:15:31.845Z,96111
2017-08-17T07:18:00.908Z,96110
2017-08-17T07:20:29.931Z,96105
2017-08-17T07:22:58.880Z,96098
2017-08-17T07:25:27.844Z,96106
2017-08-17T07:27:56.801Z,96101
2017-08-17T07:30:25.772Z,96112
2017-08-17T07:32:54.799Z,96114
2017-08-17T07:35:23.780Z,96104
2017-08-17T07:37:52.941Z,96106
2017-08-17T07:40:21.952Z,96106
2017-08-17T07:42:50.979Z,96113
2017-08-17T07:45:19.939Z,96113
2017-08-17T07:47:49.034Z,96121
2017-08-17T07:50:17.964Z,96124
2017-08-17T07:52:46.922Z,96125
2017-08-17T07:55:15.960Z,96115
2017-08-17T07:57:45.828Z,96116
2017-08-17T08:00:14.760Z,96116
2017-08-17T08:02:43.930Z,96110
2017-08-17T08:05:12.907Z,96104
2017-08-17T08:07:41.915Z,96111
2017-08-17T08:10:10.907Z,96110
2017-08-17T08:12:39.962Z,96106
2017-08-17T08:15:08.917Z,96115
2017-08-17T08:17:38.054Z,96110
2017-08-17T08:20:06.999Z,96109
2017-08-17T08:22:35.947Z,96108
2017-08-17T08:25:05.676Z,96121
2017-08-17T08:27:34.800Z,96113
2017-08-17T08:30:03.819Z,96111
2017-08-17T08:32:33.560Z,96108
2017-08-17T08:35:03.405Z,96106
2017-08-17T08:37:32.633Z,96105
2017-08-17T08:40:01.764Z,96112
2017-08-17T08:42:33.090Z,96110
2017-08-17T08:45:03.905Z,96110
2017-08-17T08:47:32.843Z,96103
2017-08-17T08:50:04.518Z,96107
2017-08-17T08:52:33.467Z,96105
2017-08-17T08:55:02.423Z,96100
2017-08-17T08:57:31.381Z,96099
2017-08-17T09:00:00.343Z,96102
2017-08-17T09:02:29.302Z,96093
2017-08-17T09:04:58.251Z,96100
2017-08-17T09:07:27.987Z,96092
2017-08-17T09:09:57.975Z,96103
2017-08-17T09:12:27.995Z,96100
2017-08-17T09:14:58.641Z,96097
2017-08-17T09:17:27.591Z,96090
2017-08-17T09:19:57.343Z,96090
2017-08-17T09:22:26.295Z,96087
2017-08-17T09:24:55.275Z,96092
2017-08-17T09:27:24.318Z,96086
2017-08-17T09:29:53.272Z,96089
2017-08-17T09:32:22.233Z,96096
2017-08-17T09:34:51.189Z,96102
2017-08-17T09:37:20.185Z,96093
2017-08-17T09:39:49.127Z,96099
2017-08-17T09:42:18.231Z,96235
2017-08-17T09:44:47.477Z,96098
2017-08-17T09:47:16.515Z,96085
2017-08-17T09:49:45.740Z,96084
2017-08-17T09:52:14.856Z,96087
2017-08-17T09:54:43.824Z,96083
2017-08-17T09:57:13.846Z,96094
2017-08-17T09:59:42.802Z,96080
2017-08-17T10:02:11.759Z,96076
2017-08-17T10:04:40.715Z,96068
2017-08-17T10:07:09.672Z,96070
2017-08-17T10:09:38.628Z,96071
2017-08-17T10:12:08.096Z,96080
2017-08-17T10:14:37.052Z,96079
2017-08-17T10:17:06.004Z,96075
2017-08-17T10:19:35.762Z,96078
2017-08-17T10:22:04.715Z,96069
2017-08-17T10:24:33.666Z,96068
2017-08-17T10:27:02.640Z,96073
2017-08-17T10:29:31.773Z,96072
2017-08-17T10:32:00.751Z,96076
2017-08-17T10:34:29.704Z,96075
2017-08-17T10:36:58.666Z,96078
2017-08-17T10:39:27.613Z,96075
2017-08-17T10:41:56.563Z,96073
2017-08-17T10:44:25.511Z,96076
2017-08-17T10:46:55.241Z,96065
2017-08-17T10:49:24.961Z,96070
2017-08-17T10:51:53.905Z,96066
2017-08-17T10:54:22.860Z,96073
2017-08-17T10:56:51.815Z,96064
2017-08-17T10:59:20.767Z,96068
2017-08-17T11:01:49.721Z,96078
2017-08-17T11:04:18.699Z,96076
2017-08-17T11:06:47.652Z,96077
2017-08-17T11:09:16.599Z,96079
2017-08-17T11:11:45.561Z,96091
2017-08-17T11:14:15.279Z,96077
2017-08-17T11:16:45.000Z,96074
2017-08-17T11:19:13.951Z,96073
2017-08-17T11:21:42.933Z,96067
2017-08-17T11:24:11.908Z,96062
2017-08-17T11:26:40.883Z,96065
2017-08-17T11:29:10.064Z,96066
2017-08-17T11:31:39.012Z,96064
2017-08-17T11:34:07.972Z,96063
2017-08-17T11:36:36.927Z,96061
2017-08-17T11:39:06.657Z,96063
2017-08-17T11:41:35.607Z,96069
2017-08-17T11:44:04.563Z,96066
2017-08-17T11:46:33.568Z,96064
2017-08-17T11:49:02.594Z,96066
2017-08-17T11:51:31.556Z,96064
2017-08-17T11:54:00.512Z,96074
2017-08-17T11:56:29.482Z,96072
2017-08-17T11:58:58.443Z,96067
2017-08-17T12:01:27.396Z,96065
2017-08-17T12:03:56.352Z,96064
2017-08-17T12:06:25.307Z,96059
2017-08-17T12:08:54.261Z,96061
2017-08-17T12:11:23.211Z,96058
2017-08-17T12:13:52.174Z,96056
2017-08-17T12:16:21.338Z,96054
2017-08-17T12:18:50.291Z,96051
2017-08-17T12:21:19.271Z,96054
2017-08-17T12:23:48.227Z,96049
2017-08-17T12:26:17.174Z,96052
2017-08-17T12:28:46.130Z,96049
2017-08-17T12:31:15.111Z,96048
2017-08-17T12:33:44.067Z,96038
2017-08-17T12:36:13.019Z,96048
2017-08-17T12:38:41.978Z,96048
2017-08-17T12:41:10.932Z,96036
2017-08-17T12:43:40.660Z,96038
2017-08-17T12:46:10.375Z,96034
2017-08-17T12:48:39.333Z,96034
2017-08-17T12:51:08.285Z,96058
2017-08-17T12:53:37.230Z,96034
2017-08-17T12:56:06.956Z,96032
2017-08-17T12:58:35.902Z,96023
2017-08-17T13:01:04.866Z,96027
2017-08-17T13:03:33.810Z,96033
2017-08-17T13:06:03.561Z,96025
2017-08-17T13:08:32.517Z,96022
2017-08-17T13:11:02.251Z,96025
2017-08-17T13:13:31.962Z,96019
2017-08-17T13:16:00.914Z,96016
2017-08-17T13:18:29.891Z,96014
2017-08-17T13:20:58.853Z,96013
2017-08-17T13:23:27.800Z,96009
2017-08-17T13:25:57.530Z,96012
2017-08-17T13:28:26.499Z,96021
2017-08-17T13:30:56.227Z,96016
2017-08-17T13:33:25.179Z,96014
2017-08-17T13:35:55.173Z,96015
2017-08-17T13:38:24.139Z,96016
2017-08-17T13:40:53.165Z,96014
2017-08-17T13:43:22.124Z,96009
2017-08-17T13:45:52.262Z,96002
2017-08-17T13:48:21.227Z,95998
2017-08-17T13:50:50.176Z,95999
2017-08-17T13:53:19.127Z,96006
2017-08-17T13:55:48.084Z,95994
2017-08-17T13:58:17.026Z,95997
2017-08-17T14:00:45.998Z,95993
2017-08-17T14:03:14.952Z,95995
2017-08-17T14:05:44.112Z,95988
2017-08-17T14:08:13.273Z,95995
2017-08-17T14:10:42.395Z,95990
2017-08-17T14:13:11.526Z,95993
2017-08-17T14:15:40.488Z,95993
2017-08-17T14:18:15.505Z,95994
2017-08-17T14:20:44.560Z,95993
2017-08-17T14:23:13.586Z,95983
2017-08-17T14:25:42.546Z,95985
2017-08-17T14:28:11.495Z,95976
2017-08-17T14:30:40.448Z,95994
2017-08-17T14:33:09.404Z,95992
2017-08-17T14:35:38.388Z,95994
2017-08-17T14:38:07.369Z,96005
2017-08-17T14:40:36.314Z,96003
2017-08-17T14:43:05.295Z,96004
2017-08-17T14:45:34.346Z,96004
2017-08-17T14:48:03.355Z,96007
2017-08-17T14:50:32.377Z,96009
2017-08-17T14:53:01.459Z,96012
2017-08-17T14:55:30.424Z,96015
2017-08-17T14:57:59.370Z,96001
2017-08-17T15:00:28.331Z,95995
2017-08-17T15:02:57.275Z,95997
2017-08-17T15:05:32.014Z,96002
2017-08-17T15:08:01.127Z,96002
2017-08-17T15:10:30.375Z,96003
2017-08-17T15:12:59.442Z,96015
2017-08-17T15:15:28.413Z,96015
2017-08-17T15:17:57.383Z,96016
2017-08-17T15:20:26.349Z,96012
2017-08-17T15:22:55.291Z,96009
2017-08-17T15:25:24.247Z,96009
2017-08-17T15:27:55.462Z,96012
2017-08-17T15:30:24.436Z,96014
2017-08-17T15:32:53.388Z,96008
2017-08-17T15:35:22.407Z,96008
2017-08-17T15:37:51.477Z,96010
2017-08-17T15:40:23.298Z,96011
2017-08-17T15:42:52.605Z,95944
2017-08-17T15:45:21.570Z,96013
2017-08-17T15:47:52.448Z,96014
2017-08-17T15:50:21.440Z,96015
2017-08-17T15:52:50.400Z,96012
2017-08-17T15:55:19.414Z,96008
2017-08-17T15:57:48.407Z,96013
2017-08-17T16:00:17.488Z,96018
2017-08-17T16:02:47.504Z,96011
2017-08-17T16:05:16.463Z,96145
2017-08-17T16:07:45.447Z,96009
2017-08-17T16:10:14.483Z,96006
2017-08-17T16:12:43.419Z,96011
2017-08-17T16:48:26.946Z,96012
2017-08-17T16:50:55.891Z,96013
2017-08-17T16:53:24.841Z,96012
2017-08-17T16:55:53.819Z,96017
2017-08-17T16:58:22.781Z,96008
2017-08-17T17:00:51.739Z,96007
2017-08-17T17:03:20.699Z,96008
2017-08-17T17:05:49.690Z,96033
2017-08-17T17:08:18.635Z,96010
2017-08-17T17:10:47.592Z,96013
2017-08-17T17:13:16.565Z,96019
2017-08-17T17:15:45.535Z,96011
2017-08-17T17:18:14.487Z,96006
2017-08-17T17:20:43.456Z,96003
2017-08-17T17:23:12.412Z,96010
2017-08-17T17:25:41.363Z,96011
2017-08-17T17:28:15.239Z,96007
2017-08-17T17:30:44.266Z,96020
2017-08-17T17:33:13.219Z,96023
2017-08-17T17:35:42.198Z,96031
2017-08-17T17:38:11.175Z,96024
2017-08-17T17:40:40.139Z,96026
2017-08-17T17:43:09.115Z,96021
2017-08-17T17:45:38.069Z,96031
2017-08-17T17:48:07.103Z,96029
2017-08-17T17:50:36.111Z,96021
2017-08-17T17:53:05.094Z,96028
2017-08-17T17:55:34.077Z,96024
2017-08-17T17:58:03.073Z,96034
2017-08-17T18:00:32.112Z,96038
2017-08-17T18:03:01.148Z,96042
2017-08-17T18:05:30.322Z,96043
2017-08-17T18:07:59.290Z,96038
2017-08-17T18:10:28.247Z,96023
2017-08-17T18:12:57.203Z,96024
2017-08-17T18:15:26.223Z,96028
2017-08-17T18:17:55.190Z,96020
2017-08-17T18:20:24.159Z,96016
2017-08-17T18:22:53.142Z,96022
2017-08-17T18:25:22.124Z,96028
2017-08-17T18:27:51.098Z,96025
2017-08-17T18:30:20.051Z,96022
2017-08-17T18:32:49.059Z,96032
2017-08-17T18:35:18.010Z,96028
2017-08-17T18:37:46.981Z,96018
2017-08-17T18:40:16.143Z,96021
2017-08-17T18:42:50.479Z,96025
2017-08-17T18:45:19.476Z,96020
2017-08-17T18:47:50.408Z,96025
2017-08-17T18:50:19.378Z,96035
2017-08-17T18:52:48.347Z,95948
2017-08-17T18:55:17.375Z,96026
2017-08-17T18:57:46.344Z,96029
2017-08-17T19:00:15.308Z,96033
2017-08-17T19:02:44.295Z,96042
2017-08-17T19:05:13.259Z,96045
2017-08-17T19:07:42.212Z,96040
2017-08-17T19:10:11.185Z,96045
2017-08-17T19:12:40.152Z,96039
2017-08-17T19:15:09.119Z,96038
2017-08-17T19:17:38.107Z,96037
2017-08-17T19:20:07.096Z,96041
2017-08-17T19:22:36.059Z,96036
2017-08-17T19:25:05.031Z,96035
2017-08-17T19:27:34.896Z,96029
2017-08-17T19:30:03.869Z,96036
2017-08-17T19:32:32.838Z,96043
2017-08-17T19:35:01.803Z,96033
2017-08-17T19:37:32.732Z,96041
2017-08-17T19:40:01.701Z,96038
2017-08-17T19:42:30.661Z,96032
2017-08-17T19:44:59.633Z,96031
2017-08-17T19:47:53.651Z,96039
2017-08-17T19:50:22.620Z,96035
2017-08-17T19:52:51.592Z,96029
2017-08-17T19:55:20.576Z,96020
2017-08-17T19:57:49.547Z,96025
2017-08-17T20:00:20.524Z,96021
2017-08-17T20:02:49.556Z,96027
2017-08-17T20:05:19.475Z,96017
2017-08-17T20:07:48.675Z,96028
2017-08-17T20:10:17.657Z,96024
2017-08-17T20:12:58.177Z,96026
2017-08-17T20:15:35.512Z,96028
2017-08-17T20:18:05.672Z,96034
2017-08-17T20:20:36.220Z,96024
2017-08-17T20:23:08.791Z,96011
2017-08-17T20:25:47.653Z,96011
2017-08-17T20:28:22.396Z,96020
2017-08-17T20:30:52.452Z,96019
2017-08-17T20:33:22.361Z,96021
2017-08-17T20:35:51.981Z,96033
2017-08-17T20:38:21.044Z,96025
2017-08-17T20:40:54.354Z,96023
2017-08-17T20:43:23.316Z,96031
2017-08-17T20:45:52.316Z,96034
2017-08-17T20:48:22.227Z,96033
2017-08-17T20:50:51.215Z,96027
2017-08-17T20:53:20.359Z,96033
2017-08-17T20:55:49.395Z,96043
2017-08-17T20:58:19.727Z,96043
2017-08-17T21:00:53.935Z,96041
2017-08-17T21:03:23.033Z,96044
2017-08-17T21:05:54.030Z,96051
2017-08-17T21:08:23.272Z,96050
2017-08-17T21:10:52.443Z,96056
2017-08-17T21:13:22.826Z,96046
2017-08-17T21:15:51.987Z,96033
2017-08-17T21:18:20.987Z,96037
2017-08-17T21:20:50.026Z,96034
2017-08-17T21:23:19.201Z,96035
2017-08-17T21:25:48.433Z,96031
2017-08-17T21:28:27.896Z,96036
2017-08-17T21:30:57.002Z,96038
2017-08-17T21:33:26.144Z,96039
2017-08-17T21:35:56.392Z,96049
2017-08-17T21:38:25.387Z,96049
2017-08-17T21:40:54.452Z,96044
2017-08-17T21:43:29.324Z,96046
2017-08-17T21:45:59.080Z,96044
2017-08-17T21:48:28.115Z,96043
2017-08-17T21:50:57.669Z,96047
2017-08-17T21:53:26.724Z,96045
2017-08-17T21:55:55.696Z,96043
2017-08-17T21:58:24.651Z,96048
2017-08-17T22:00:53.646Z,96049
2017-08-17T22:03:22.656Z,96042
2017-08-17T22:05:51.716Z,96046
2017-08-17T22:08:20.840Z,96061
2017-08-17T22:10:51.288Z,96057
2017-08-17T22:13:20.259Z,96056
2017-08-17T22:15:49.231Z,96059
2017-08-17T22:18:18.213Z,96061
2017-08-17T22:20:47.208Z,96061
2017-08-17T22:23:16.331Z,96058
2017-08-17T22:25:50.245Z,96064
2017-08-17T22:28:19.328Z,96058
2017-08-17T22:30:48.535Z,96059
2017-08-17T22:33:17.532Z,96052
2017-08-17T22:35:48.804Z,96058
2017-08-17T22:38:17.994Z,96067
2017-08-17T22:40:46.958Z,96061
2017-08-17T22:43:15.916Z,96063
2017-08-17T22:45:44.927Z,96055
2017-08-17T22:48:14.155Z,96066
2017-08-17T22:50:43.284Z,96068
2017-08-17T22:53:12.791Z,96069
2017-08-17T22:55:41.764Z,96071
2017-08-17T22:58:10.744Z,96071
2017-08-17T23:00:39.701Z,96077
2017-08-17T23:03:08.985Z,96076
2017-08-17T23:05:38.077Z,96074
2017-08-17T23:08:07.393Z,96067
2017-08-17T23:10:36.456Z,96067
2017-08-17T23:13:07.347Z,96070
2017-08-17T23:15:36.336Z,96055
2017-08-17T23:18:05.311Z,96058
2017-08-17T23:20:34.319Z,96063
2017-08-17T23:23:03.281Z,96052
2017-08-17T23:25:32.259Z,96061
2017-08-17T23:28:01.268Z,96058
2017-08-17T23:30:30.213Z,96058
2017-08-17T23:33:05.498Z,96050
2017-08-17T23:35:34.453Z,96056
2017-08-17T23:38:09.394Z,96043
2017-08-17T23:40:38.349Z,96038
2017-08-17T23:43:07.327Z,96040
2017-08-17T23:45:36.292Z,96037
2017-08-17T23:48:05.252Z,96041
2017-08-17T23:50:34.215Z,96035
2017-08-17T23:53:20.134Z,96036
2017-08-17T23:55:49.104Z,96027
2017-08-17T23:58:18.071Z,96031
